Time;durP1;ratioP1;P1;durP2;ratioP2;P2;SDS_P1;SDS_P2;PMS_P1;PMS_P2;Temp;Humidity;BMP_temperature;BMP_pressure;BME280_temperature;BME280_humidity;BME280_pressure;Samples;Min_cycle;Max_cycle;Signal;HPM_P1;HPM_P2
2022/11/10 00:01:06;;;;;;;12.53;5.53;;;;;;;6.87;93.56;100718.41;4973516;28;20204;-66
2022/11/10 00:03:34;;;;;;;13.40;6.13;;;;;;;6.86;93.36;100716.59;4969282;28;20670;-66
2022/11/10 00:06:04;;;;;;;12.37;5.90;;;;;;;6.78;93.12;100716.31;4968881;28;20243;-66
2022/11/10 00:08:30;;;;;;;15.27;6.10;;;;;;;6.65;92.84;100731.66;4970198;28;20287;-66
2022/11/10 00:10:57;;;;;;;9.60;5.67;;;;;;;6.49;92.63;100733.75;4971132;28;20204;-66
2022/11/10 00:13:24;;;;;;;13.00;5.93;;;;;;;6.41;92.74;100729.09;4970506;28;20642;-66
2022/11/10 00:18:35;;;;;;;15.80;5.00;;;;;;;6.24;92.96;100741.59;4970431;28;20299;-66
2022/11/10 00:21:09;;;;;;;15.43;5.07;;;;;;;6.29;93.07;100763.72;4973209;28;20202;-66
2022/11/10 00:23:37;;;;;;;9.53;4.53;;;;;;;6.28;93.25;100767.19;4972243;28;20230;-66
2022/11/10 00:26:09;;;;;;;13.10;5.17;;;;;;;6.32;93.70;100762.91;4970173;28;20227;-66
2022/11/10 00:28:35;;;;;;;12.77;5.27;;;;;;;6.34;93.52;100766.50;4969621;28;20233;-66
2022/11/10 00:31:05;;;;;;;10.67;4.30;;;;;;;6.40;93.82;100774.59;4970884;28;20226;-66
2022/11/10 00:33:36;;;;;;;10.43;4.83;;;;;;;6.46;93.35;100778.38;4967512;28;20197;-66
2022/11/10 00:36:04;;;;;;;11.20;4.57;;;;;;;6.48;93.80;100767.91;4970366;28;20232;-66
2022/11/10 00:38:31;;;;;;;12.97;4.73;;;;;;;6.48;93.46;100775.81;4967724;28;20718;-66
2022/11/10 00:40:59;;;;;;;15.87;4.33;;;;;;;6.51;93.35;100776.81;4969634;28;20781;-66
2022/11/10 00:43:26;;;;;;;7.57;3.53;;;;;;;6.56;93.55;100788.38;4970336;28;20284;-66
2022/11/10 00:45:52;;;;;;;12.77;4.27;;;;;;;6.43;93.33;100780.00;4971542;28;20201;-66
2022/11/10 00:48:19;;;;;;;15.27;3.90;;;;;;;6.42;93.25;100791.38;4970921;28;20242;-66
2022/11/10 00:50:45;;;;;;;14.10;4.07;;;;;;;6.36;93.13;100794.66;4969105;28;20201;-66
2022/11/10 00:53:12;;;;;;;10.80;4.30;;;;;;;6.34;93.33;100795.44;4972157;28;20253;-66
2022/11/10 00:55:41;;;;;;;6.63;4.23;;;;;;;6.29;93.66;100805.78;4958606;28;20299;-66
2022/11/10 00:58:08;;;;;;;8.47;3.63;;;;;;;6.20;93.59;100806.34;4972487;28;20645;-66
2022/11/10 01:00:34;;;;;;;9.57;3.73;;;;;;;6.20;93.28;100821.22;4968838;28;20746;-66
2022/11/10 01:03:01;;;;;;;10.80;4.07;;;;;;;6.14;93.49;100819.28;4969538;28;20240;-66
2022/11/10 01:05:28;;;;;;;12.90;3.63;;;;;;;6.11;93.47;100827.03;4968360;28;20244;-66
2022/11/10 01:07:56;;;;;;;7.73;3.63;;;;;;;6.21;93.97;100831.81;4970858;28;20601;-66
2022/11/10 01:10:23;;;;;;;9.40;3.87;;;;;;;6.23;93.86;100834.50;4966721;28;20288;-66
2022/11/10 01:12:49;;;;;;;11.47;3.90;;;;;;;6.23;93.88;100845.00;4972150;28;20252;-66
2022/11/10 01:15:15;;;;;;;9.30;3.77;;;;;;;6.15;93.70;100847.34;4970185;28;20235;-66
2022/11/10 01:17:42;;;;;;;8.37;3.90;;;;;;;6.07;93.65;100848.81;4971235;28;20264;-66
2022/11/10 01:20:09;;;;;;;8.63;4.13;;;;;;;6.07;93.38;100846.19;4967696;28;20281;-66
2022/11/10 01:22:35;;;;;;;10.40;4.43;;;;;;;6.07;94.00;100837.38;4968451;28;20281;-66
2022/11/10 01:25:02;;;;;;;9.73;4.43;;;;;;;6.12;93.73;100856.88;4965544;28;20200;-66
2022/11/10 01:27:28;;;;;;;10.27;4.13;;;;;;;6.04;93.72;100861.84;4970687;28;20251;-66
2022/11/10 01:29:55;;;;;;;10.27;4.83;;;;;;;6.06;93.78;100864.53;4964367;28;20229;-66
2022/11/10 01:32:21;;;;;;;10.03;5.27;;;;;;;6.03;93.79;100872.28;4971003;28;20255;-66
2022/11/10 01:34:47;;;;;;;15.27;4.90;;;;;;;5.99;93.76;100873.88;4972796;28;20439;-66
2022/11/10 01:37:13;;;;;;;8.77;4.53;;;;;;;5.96;93.68;100869.38;4967667;28;20340;-66
2022/11/10 01:39:40;;;;;;;13.17;4.53;;;;;;;6.00;93.78;100870.41;4971207;28;20244;-66
2022/11/10 01:42:06;;;;;;;12.07;4.83;;;;;;;5.96;94.02;100872.03;4963670;28;20660;-66
2022/11/10 01:44:33;;;;;;;11.43;4.10;;;;;;;5.93;93.59;100882.41;4970839;28;20281;-66
2022/11/10 01:47:00;;;;;;;8.77;4.30;;;;;;;5.90;93.87;100879.66;4969350;28;21858;-66
2022/11/10 01:49:31;;;;;;;12.40;4.00;;;;;;;5.85;94.15;100870.66;4969276;28;20239;-66
2022/11/10 01:52:03;;;;;;;13.00;4.33;;;;;;;5.84;94.04;100868.88;4960201;28;20226;-66
2022/11/10 01:54:33;;;;;;;11.77;4.10;;;;;;;5.85;93.95;100882.91;4970490;28;20626;-66
2022/11/10 01:57:05;;;;;;;5.03;3.60;;;;;;;5.83;93.67;100877.59;4970201;28;20256;-66
2022/11/10 01:59:38;;;;;;;18.10;4.00;;;;;;;5.86;94.13;100889.97;4968454;28;20287;-66
2022/11/10 02:02:27;;;;;;;9.57;3.53;;;;;;;5.87;94.10;100886.50;4968390;28;20225;-66
2022/11/10 02:04:54;;;;;;;8.80;4.27;;;;;;;5.86;94.11;100882.09;4963461;28;20706;-66
2022/11/10 02:07:21;;;;;;;5.93;3.67;;;;;;;5.87;93.93;100891.75;4954820;28;20258;-66
2022/11/10 02:09:47;;;;;;;7.23;3.90;;;;;;;5.87;94.07;100886.50;4962947;28;20203;-66
2022/11/10 02:12:14;;;;;;;11.57;3.90;;;;;;;5.84;93.93;100900.41;4970132;28;20304;-66
2022/11/10 02:14:41;;;;;;;10.97;3.63;;;;;;;5.81;94.06;100887.16;4969467;28;20245;-66
2022/11/10 02:17:08;;;;;;;10.73;4.00;;;;;;;5.87;94.28;100895.28;4967769;28;20286;-66
2022/11/10 02:19:40;;;;;;;7.60;3.60;;;;;;;5.88;94.18;100897.06;4967674;28;20263;-66
2022/11/10 02:22:06;;;;;;;10.87;3.80;;;;;;;5.91;94.08;100899.84;4970879;28;20283;-66
2022/11/10 02:24:33;;;;;;;10.20;3.80;;;;;;;5.84;94.04;100892.53;4961708;28;20284;-66
2022/11/10 02:26:59;;;;;;;16.80;3.87;;;;;;;5.91;94.30;100904.22;4970173;28;20306;-66
2022/11/10 02:29:25;;;;;;;11.43;3.50;;;;;;;5.90;94.08;100899.78;4962274;28;20255;-66
2022/11/10 02:31:52;;;;;;;11.97;3.83;;;;;;;5.81;93.96;100896.78;4969680;28;20301;-66
2022/11/10 02:34:18;;;;;;;8.93;3.97;;;;;;;5.71;94.04;100889.34;4965490;28;20616;-66
2022/11/10 02:36:44;;;;;;;8.37;3.70;;;;;;;5.66;93.86;100887.44;4968741;28;20307;-66
2022/11/10 02:39:11;;;;;;;10.30;3.67;;;;;;;5.61;93.95;100888.09;4970448;28;20295;-66
2022/11/10 02:41:37;;;;;;;9.37;3.50;;;;;;;5.59;94.01;100888.00;4968901;28;20438;-66
2022/11/10 02:44:05;;;;;;;11.97;4.37;;;;;;;5.62;94.34;100879.38;4970222;28;20284;-66
2022/11/10 02:46:31;;;;;;;9.70;3.90;;;;;;;5.72;94.57;100880.63;4965520;28;20778;-66
2022/11/10 02:48:58;;;;;;;9.33;4.23;;;;;;;5.76;94.33;100893.97;4968296;28;20281;-66
2022/11/10 02:51:24;;;;;;;10.03;4.83;;;;;;;5.67;94.30;100898.84;4970125;28;20308;-66
2022/11/10 02:53:50;;;;;;;7.23;4.13;;;;;;;5.63;93.77;100910.06;4965708;28;20259;-66
2022/11/10 02:56:17;;;;;;;10.03;4.63;;;;;;;5.53;93.68;100906.13;4963609;28;20255;-66
2022/11/10 02:58:43;;;;;;;9.93;4.00;;;;;;;5.47;94.00;100911.13;4967636;28;20630;-66
2022/11/10 03:01:09;;;;;;;10.20;4.50;;;;;;;5.50;93.97;100915.63;4968727;28;20259;-66
2022/11/10 03:03:36;;;;;;;8.10;3.87;;;;;;;5.49;94.06;100916.47;4966541;28;20242;-66
2022/11/10 03:06:02;;;;;;;11.70;4.93;;;;;;;5.40;94.21;100911.72;4969615;28;20251;-66
2022/11/10 03:08:28;;;;;;;13.83;5.00;;;;;;;5.51;94.34;100915.69;4968436;28;21171;-66
2022/11/10 03:10:55;;;;;;;12.20;5.03;;;;;;;5.50;94.19;100932.28;4973183;28;20684;-66
2022/11/10 03:13:23;;;;;;;9.40;4.47;;;;;;;5.41;93.74;100929.28;4971286;28;20256;-66
2022/11/10 03:15:50;;;;;;;11.53;4.73;;;;;;;5.34;94.04;100949.13;4976324;28;20287;-66
2022/11/10 03:18:17;;;;;;;9.00;4.73;;;;;;;5.36;94.09;100954.44;4972372;28;20225;-66
2022/11/10 03:20:46;;;;;;;8.37;4.43;;;;;;;5.39;94.13;100946.69;4972700;28;20293;-66
2022/11/10 03:23:12;;;;;;;10.00;4.97;;;;;;;5.46;94.34;100956.63;4964827;28;20233;-66
2022/11/10 03:25:39;;;;;;;12.27;4.53;;;;;;;5.49;94.40;100959.38;4972956;28;20246;-66
2022/11/10 03:28:05;;;;;;;10.47;4.73;;;;;;;5.42;94.12;100967.84;5006712;23;20251;-67
2022/11/10 03:30:31;;;;;;;10.23;4.77;;;;;;;5.32;93.79;100957.78;5028131;28;20290;-69
2022/11/10 03:32:58;;;;;;;9.60;4.57;;;;;;;5.24;93.76;100959.19;5014993;28;20255;-68
2022/11/10 03:35:25;;;;;;;8.97;4.60;;;;;;;5.15;93.69;100972.78;5030731;28;20295;-68
2022/11/10 03:37:51;;;;;;;7.80;4.60;;;;;;;4.99;93.88;100946.69;5024127;28;20315;-69
2022/11/10 03:40:17;;;;;;;7.23;4.23;;;;;;;5.06;94.12;100979.34;5015497;28;20231;-68
2022/11/10 03:42:45;;;;;;;10.43;5.00;;;;;;;5.07;94.11;100991.63;5019892;28;20200;-69
2022/11/10 03:45:13;;;;;;;10.77;4.97;;;;;;;5.08;94.25;100996.06;5016620;28;20229;-70
2022/11/10 03:47:40;;;;;;;13.97;4.90;;;;;;;5.13;94.47;100986.66;5021720;28;20294;-68
2022/11/10 03:50:06;;;;;;;9.77;4.77;;;;;;;5.17;94.51;100986.84;5016021;28;20199;-69
2022/11/10 03:52:33;;;;;;;10.07;4.63;;;;;;;5.25;94.62;100998.63;5017124;28;20262;-68
2022/11/10 03:54:59;;;;;;;10.80;4.63;;;;;;;5.23;94.17;101002.03;5017982;28;20292;-68
2022/11/10 03:57:29;;;;;;;13.10;5.23;;;;;;;5.17;94.42;101005.25;5014060;28;20304;-68
2022/11/10 03:59:57;;;;;;;10.33;4.33;;;;;;;5.17;94.36;101002.63;5013622;28;20350;-68
2022/11/10 04:02:23;;;;;;;8.83;4.73;;;;;;;5.18;94.17;101016.63;5015932;28;20224;-68
2022/11/10 04:10:20;;;;;;;10.07;4.63;;;;;;;4.98;94.08;101013.13;5015933;28;20318;-68
2022/11/10 04:15:42;;;;;;;9.07;4.33;;;;;;;4.95;94.27;101026.13;5013987;28;20336;-69
2022/11/10 04:18:20;;;;;;;10.40;4.43;;;;;;;4.89;94.23;101025.84;5016953;28;20518;-68
2022/11/10 04:20:49;;;;;;;8.97;4.27;;;;;;;4.86;94.16;101028.31;5016362;28;20199;-68
2022/11/10 04:23:28;;;;;;;11.33;4.43;;;;;;;4.84;94.41;101038.75;5021327;28;20287;-68
2022/11/10 04:28:51;;;;;;;12.53;4.30;;;;;;;4.95;94.17;101042.75;5027447;28;20229;-68
2022/11/10 04:31:19;;;;;;;14.37;5.00;;;;;;;4.90;93.90;101048.63;5018184;28;20206;-68
2022/11/10 04:33:47;;;;;;;10.77;4.57;;;;;;;4.75;93.76;101032.16;5020432;28;20255;-68
2022/11/10 04:36:19;;;;;;;10.03;4.70;;;;;;;4.72;93.92;101038.16;5011813;28;20224;-68
2022/11/10 04:38:46;;;;;;;10.07;4.47;;;;;;;4.73;94.74;101032.06;5016946;28;20734;-68
2022/11/10 04:41:13;;;;;;;10.07;4.20;;;;;;;4.79;94.49;101039.31;5012721;28;20622;-68
2022/11/10 04:43:40;;;;;;;8.17;4.00;;;;;;;4.72;94.35;101040.78;5014408;28;20283;-68
2022/11/10 04:46:16;;;;;;;7.47;4.17;;;;;;;4.65;94.28;101047.47;5013275;28;20238;-68
2022/11/10 04:48:42;;;;;;;9.27;4.37;;;;;;;4.61;94.36;101049.88;5012723;28;20258;-68
2022/11/10 04:51:08;;;;;;;11.60;5.00;;;;;;;4.59;94.29;101049.78;5014390;28;20234;-68
2022/11/10 04:53:35;;;;;;;7.47;4.67;;;;;;;4.58;94.43;101053.25;5018770;28;20227;-68
2022/11/10 04:56:01;;;;;;;15.13;4.67;;;;;;;4.56;94.37;101052.28;5017815;28;20227;-69
2022/11/10 04:58:28;;;;;;;15.50;5.10;;;;;;;4.56;94.56;101060.16;5021469;28;20215;-67
2022/11/10 05:00:54;;;;;;;10.00;4.53;;;;;;;4.58;94.59;101054.97;5014216;28;20232;-68
2022/11/10 05:03:20;;;;;;;13.23;4.30;;;;;;;4.66;94.53;101066.72;5012887;28;20195;-68
2022/11/10 05:05:48;;;;;;;11.63;4.30;;;;;;;4.71;94.75;101087.09;5015079;28;20212;-68
2022/11/10 05:08:14;;;;;;;11.20;4.80;;;;;;;4.86;94.80;101084.31;5016857;28;20250;-69
2022/11/10 05:10:41;;;;;;;8.07;4.17;;;;;;;4.92;94.98;101086.34;5013861;28;20235;-68
2022/11/10 05:13:07;;;;;;;14.07;4.53;;;;;;;4.98;94.99;101098.00;5017479;28;20672;-67
2022/11/10 05:15:33;;;;;;;13.00;4.50;;;;;;;5.03;95.06;101104.38;5016930;28;20696;-68
2022/11/10 05:17:59;;;;;;;7.70;4.33;;;;;;;5.08;94.96;101114.19;5013388;28;20639;-67
2022/11/10 05:20:26;;;;;;;8.83;4.33;;;;;;;5.10;94.91;101123.94;5012727;28;20283;-68
2022/11/10 05:25:40;;;;;;;10.17;4.20;;;;;;;5.20;94.99;101127.88;5015272;28;20641;-68
2022/11/10 05:28:08;;;;;;;14.10;4.70;;;;;;;5.31;95.18;101131.94;5018028;28;20298;-67
2022/11/10 05:30:35;;;;;;;11.43;4.90;;;;;;;5.27;95.47;101124.75;5017779;28;20241;-67
2022/11/10 05:33:01;;;;;;;9.53;4.47;;;;;;;5.35;95.17;101136.50;5013648;28;20244;-68
2022/11/10 05:35:27;;;;;;;15.80;4.93;;;;;;;5.32;94.93;101134.63;5011560;28;20305;-69
2022/11/10 05:37:54;;;;;;;9.80;4.90;;;;;;;5.32;95.01;101136.34;5015076;28;20308;-66
2022/11/10 05:40:20;;;;;;;7.37;4.10;;;;;;;5.29;94.83;101138.84;5021266;28;20209;-68
2022/11/10 05:42:51;;;;;;;10.50;4.67;;;;;;;5.28;94.84;101144.91;5012970;28;20671;-68
2022/11/10 05:45:20;;;;;;;9.53;4.73;;;;;;;5.30;95.06;101138.00;5010398;28;20200;-69
2022/11/10 05:47:47;;;;;;;14.20;4.70;;;;;;;5.29;95.08;101133.59;5013724;28;20274;-68
2022/11/10 05:50:14;;;;;;;10.40;4.23;;;;;;;5.27;95.07;101141.41;5015251;28;20196;-70
2022/11/10 05:52:43;;;;;;;9.93;4.00;;;;;;;5.22;94.75;101156.03;5013983;28;20761;-68
2022/11/10 05:55:17;;;;;;;9.83;4.17;;;;;;;5.19;94.65;101165.47;5016806;28;20251;-68
2022/11/10 05:57:45;;;;;;;9.67;4.17;;;;;;;5.14;94.94;101170.50;5013236;28;20311;-69
2022/11/10 06:00:17;;;;;;;13.53;4.00;;;;;;;5.04;94.22;101170.91;5025164;28;20665;-68
2022/11/10 06:02:44;;;;;;;8.20;4.17;;;;;;;4.99;94.60;101175.94;5012539;28;20317;-68
2022/11/10 06:05:10;;;;;;;11.87;4.50;;;;;;;4.96;95.01;101183.66;5016594;28;20747;-69
2022/11/10 06:07:39;;;;;;;10.43;3.90;;;;;;;4.93;94.56;101190.50;5011318;28;20263;-68
2022/11/10 06:10:06;;;;;;;11.17;3.90;;;;;;;4.88;94.70;101192.00;5017687;28;20302;-68
2022/11/10 06:12:32;;;;;;;9.27;4.20;;;;;;;4.89;94.66;101189.44;5018853;28;20287;-68
2022/11/10 06:14:59;;;;;;;13.60;4.10;;;;;;;4.87;94.67;101205.94;5019048;28;20275;-68
2022/11/10 06:17:25;;;;;;;8.53;4.30;;;;;;;4.82;94.61;101221.47;5019568;28;20317;-68
2022/11/10 06:19:52;;;;;;;9.00;3.90;;;;;;;4.89;95.03;101215.69;5020002;28;20242;-68
2022/11/10 06:22:19;;;;;;;8.67;3.90;;;;;;;4.84;94.72;101229.41;5009654;28;20287;-68
2022/11/10 06:24:45;;;;;;;9.43;3.77;;;;;;;4.72;94.46;101219.19;5014575;28;20224;-66
2022/11/10 06:27:12;;;;;;;11.87;4.00;;;;;;;4.77;94.75;101241.28;5013179;28;20252;-69
2022/11/10 06:29:38;;;;;;;9.77;4.00;;;;;;;4.72;94.65;101238.44;5016895;28;20633;-70
2022/11/10 06:32:05;;;;;;;9.40;4.77;;;;;;;4.68;94.57;101243.47;4969239;28;20258;-71
2022/11/10 06:34:31;;;;;;;14.43;4.70;;;;;;;4.74;95.04;101246.38;5016434;28;20243;-71
2022/11/10 06:36:57;;;;;;;9.80;4.13;;;;;;;4.75;94.78;101242.03;5014163;28;20231;-68
2022/11/10 06:39:23;;;;;;;13.03;4.33;;;;;;;4.81;94.88;101259.03;5013977;28;20655;-69
2022/11/10 06:41:50;;;;;;;8.50;4.50;;;;;;;4.80;95.05;101259.81;5016597;28;20228;-68
2022/11/10 06:44:16;;;;;;;10.03;4.47;;;;;;;4.86;95.06;101267.13;5017004;28;20201;-68
2022/11/10 06:46:42;;;;;;;12.37;4.40;;;;;;;4.86;94.90;101268.03;5016624;28;20278;-68
2022/11/10 06:49:10;;;;;;;11.33;4.40;;;;;;;4.84;95.10;101276.66;5009920;28;20222;-69
2022/11/10 06:51:36;;;;;;;9.77;4.40;;;;;;;4.88;95.08;101281.22;5019549;28;20226;-68
2022/11/10 06:54:03;;;;;;;10.80;4.37;;;;;;;4.87;95.00;101267.19;5015154;28;20266;-68
2022/11/10 06:56:29;;;;;;;10.77;4.60;;;;;;;4.95;95.22;101283.31;5022738;28;20239;-71
2022/11/10 06:58:55;;;;;;;12.03;4.63;;;;;;;5.01;95.22;101289.78;5013827;28;20548;-68
2022/11/10 07:01:25;;;;;;;11.80;5.00;;;;;;;5.11;95.29;101295.47;5012508;28;20680;-69
2022/11/10 07:03:52;;;;;;;11.10;5.03;;;;;;;5.11;95.10;101298.09;5013031;28;20261;-68
2022/11/10 07:06:38;;;;;;;10.93;4.53;;;;;;;5.08;95.12;101304.09;4992836;28;20223;-70
2022/11/10 07:09:05;;;;;;;7.80;4.50;;;;;;;5.16;95.23;101321.13;5022339;28;20653;-69
2022/11/10 07:11:31;;;;;;;11.13;4.27;;;;;;;5.20;95.17;101303.81;5015416;28;20238;-69
2022/11/10 07:13:57;;;;;;;14.33;5.33;;;;;;;5.38;95.59;101320.50;5014096;28;20241;-69
2022/11/10 07:16:24;;;;;;;14.90;5.40;;;;;;;5.50;95.36;101315.81;5021487;28;20291;-69
2022/11/10 07:18:50;;;;;;;11.93;6.10;;;;;;;5.58;95.45;101324.97;5015624;28;20711;-69
2022/11/10 07:21:16;;;;;;;16.67;6.10;;;;;;;5.65;95.31;101326.19;5015124;28;20254;-71
2022/11/10 07:23:43;;;;;;;17.53;6.03;;;;;;;5.76;95.20;101337.22;5019674;28;20200;-69
2022/11/10 07:26:09;;;;;;;13.57;5.80;;;;;;;5.75;95.24;101335.41;5018645;28;20331;-69
2022/11/10 07:28:35;;;;;;;13.63;6.20;;;;;;;5.80;95.45;101345.31;5017568;28;20266;-68
2022/11/10 07:31:02;;;;;;;16.30;5.97;;;;;;;5.93;95.54;101350.34;5017950;28;20238;-69
2022/11/10 07:33:29;;;;;;;11.47;5.47;;;;;;;6.02;95.50;101355.16;5014800;28;20236;-69
2022/11/10 07:35:59;;;;;;;16.47;6.23;;;;;;;6.05;95.45;101351.78;5013921;28;20237;-69
2022/11/10 07:38:25;;;;;;;14.40;6.50;;;;;;;6.17;95.38;101368.13;5022387;28;20257;-65
2022/11/10 07:40:53;;;;;;;12.27;5.93;;;;;;;6.21;95.59;101365.69;5019650;28;20237;-68
2022/11/10 07:43:20;;;;;;;14.70;6.33;;;;;;;6.28;95.44;101375.66;5012467;28;20217;-70
2022/11/10 07:45:51;;;;;;;11.23;6.33;;;;;;;6.33;95.32;101380.25;5013681;28;20279;-68
2022/11/10 07:48:18;;;;;;;14.17;6.40;;;;;;;6.35;95.45;101376.84;5012315;28;20229;-69
2022/11/10 07:50:45;;;;;;;17.60;7.10;;;;;;;6.47;95.48;101390.59;5018903;28;20207;-67
2022/11/10 07:53:14;;;;;;;19.37;6.37;;;;;;;6.55;95.47;101394.47;5021815;28;20290;-70
2022/11/10 07:55:42;;;;;;;12.60;6.43;;;;;;;6.54;95.48;101397.94;5022463;28;20292;-68
2022/11/10 07:58:11;;;;;;;17.57;6.43;;;;;;;6.63;95.50;101389.53;5015558;28;20262;-68
2022/11/10 08:00:37;;;;;;;14.77;6.67;;;;;;;6.66;95.33;101397.56;5014607;28;20204;-68
2022/11/10 08:03:06;;;;;;;10.70;6.10;;;;;;;6.69;95.44;101395.06;5019364;28;20224;-69
2022/11/10 08:05:33;;;;;;;13.90;6.10;;;;;;;6.73;95.46;101407.53;5031421;28;20297;-68
2022/11/10 08:07:59;;;;;;;18.23;6.43;;;;;;;6.79;95.46;101420.06;5013083;28;20311;-66
2022/11/10 08:10:27;;;;;;;21.07;7.20;;;;;;;6.86;95.42;101412.53;5017672;28;20197;-70
2022/11/10 08:12:54;;;;;;;14.97;6.63;;;;;;;6.99;95.49;101420.97;5016181;28;20730;-67
2022/11/10 08:15:22;;;;;;;12.80;6.30;;;;;;;7.12;95.44;101423.31;5019966;28;20243;-66
2022/11/10 08:17:48;;;;;;;14.60;6.83;;;;;;;7.22;95.74;101422.91;5014083;28;20272;-69
2022/11/10 08:20:15;;;;;;;14.30;7.10;;;;;;;7.34;95.74;101418.16;5020608;28;20235;-68
2022/11/10 08:22:43;;;;;;;19.23;6.90;;;;;;;7.47;95.69;101414.28;5018519;28;20486;-67
2022/11/10 08:25:09;;;;;;;16.67;7.03;;;;;;;7.58;95.58;101423.53;5022743;28;20739;-67
2022/11/10 08:27:36;;;;;;;14.40;7.17;;;;;;;7.65;95.52;101424.72;5023229;28;20285;-66
2022/11/10 08:30:02;;;;;;;16.10;8.10;;;;;;;7.70;95.72;101423.19;5014916;28;20229;-67
2022/11/10 08:32:29;;;;;;;17.67;8.60;;;;;;;7.73;95.58;101429.47;5015283;28;20288;-69
2022/11/10 08:34:55;;;;;;;21.50;8.53;;;;;;;7.83;95.53;101422.84;5016022;28;20250;-70
2022/11/10 08:37:21;;;;;;;22.23;8.53;;;;;;;7.86;95.58;101422.94;5024933;28;20540;-69
2022/11/10 08:39:47;;;;;;;19.77;8.27;;;;;;;7.89;95.49;101428.34;5019653;28;20231;-69
2022/11/10 08:42:16;;;;;;;21.17;8.23;;;;;;;7.94;95.51;101436.44;5021943;28;20629;-69
2022/11/10 08:44:42;;;;;;;24.90;9.13;;;;;;;7.99;95.30;101433.16;5019577;28;20233;-68
2022/11/10 08:47:08;;;;;;;19.70;8.53;;;;;;;8.03;95.24;101445.66;5016291;28;20292;-69
2022/11/10 08:49:37;;;;;;;16.30;8.50;;;;;;;8.08;95.34;101446.75;5020945;28;20808;-67
2022/11/10 08:52:03;;;;;;;18.33;8.27;;;;;;;8.15;95.28;101442.59;5012356;28;20295;-68
2022/11/10 08:54:30;;;;;;;16.87;8.70;;;;;;;8.23;94.99;101446.44;5018954;28;20239;-68
2022/11/10 08:56:56;;;;;;;22.67;9.23;;;;;;;8.29;95.24;101446.69;5019230;28;20232;-68
2022/11/10 08:59:22;;;;;;;14.97;8.57;;;;;;;8.37;95.11;101444.38;5016333;28;20287;-68
2022/11/10 09:01:49;;;;;;;18.10;9.40;;;;;;;8.54;95.23;101453.88;5017592;28;20287;-68
2022/11/10 09:04:15;;;;;;;22.43;8.27;;;;;;;8.62;95.14;101449.78;5019328;28;20219;-66
2022/11/10 09:06:41;;;;;;;18.93;8.00;;;;;;;8.77;95.02;101467.91;5020309;28;20210;-66
2022/11/10 09:09:08;;;;;;;19.70;7.57;;;;;;;8.94;94.48;101463.28;5017771;28;20222;-66
2022/11/10 09:11:34;;;;;;;15.87;7.27;;;;;;;9.04;94.00;101463.69;5025574;28;20195;-66
2022/11/10 09:14:00;;;;;;;15.53;6.63;;;;;;;9.10;94.10;101470.94;5022045;28;20220;-68
2022/11/10 09:16:27;;;;;;;15.03;6.73;;;;;;;9.20;94.22;101477.44;5023320;28;20302;-68
2022/11/10 09:18:53;;;;;;;12.80;5.73;;;;;;;9.39;91.36;101483.47;5022828;28;20304;-66
2022/11/10 09:21:19;;;;;;;14.07;5.13;;;;;;;9.32;93.49;101478.81;5023796;28;20321;-67
2022/11/10 09:23:47;;;;;;;14.67;6.73;;;;;;;9.38;92.77;101483.41;5011866;28;20225;-70
2022/11/10 09:26:13;;;;;;;17.50;6.37;;;;;;;9.51;91.69;101482.09;5017005;28;20630;-71
2022/11/10 09:28:42;;;;;;;12.37;6.40;;;;;;;9.45;92.41;101487.16;5043109;23;20268;-65
2022/11/10 09:31:08;;;;;;;17.27;6.70;;;;;;;9.42;91.81;101496.78;5021074;28;20822;-65
2022/11/10 09:33:34;;;;;;;15.63;6.10;;;;;;;9.34;91.94;101492.97;5022808;28;20636;-64
2022/11/10 09:36:01;;;;;;;13.47;5.73;;;;;;;9.19;92.47;101499.44;5018965;28;20246;-65
2022/11/10 09:38:27;;;;;;;11.10;5.43;;;;;;;9.30;92.03;101508.69;5019603;28;20297;-65
2022/11/10 09:41:01;;;;;;;10.27;4.87;;;;;;;9.32;93.40;101505.25;5012783;28;20203;-65
2022/11/10 09:43:52;;;;;;;8.83;4.13;;;;;;;9.45;92.92;101503.03;5017221;28;20213;-65
2022/11/10 09:46:24;;;;;;;8.93;4.40;;;;;;;9.50;93.31;101510.28;5016505;28;20228;-65
2022/11/10 09:49:00;;;;;;;8.33;3.57;;;;;;;9.69;91.81;101520.69;5009948;28;20268;-65
2022/11/10 09:51:32;;;;;;;13.00;3.83;;;;;;;9.71;92.51;101526.91;5020510;28;20312;-65
2022/11/10 09:54:15;;;;;;;8.00;3.63;;;;;;;9.90;93.48;101528.44;5023238;28;20301;-65
2022/11/10 09:56:41;;;;;;;7.77;3.47;;;;;;;10.15;93.26;101531.94;5015707;28;20196;-64
2022/11/10 09:59:37;;;;;;;7.60;3.40;;;;;;;10.35;91.03;101530.84;5018971;28;20755;-65
2022/11/10 10:02:13;;;;;;;12.93;3.27;;;;;;;10.58;88.26;101528.97;5003827;28;20291;-65
2022/11/10 10:04:55;;;;;;;10.53;3.27;;;;;;;10.65;88.73;101531.84;5014747;28;20200;-65
2022/11/10 10:07:29;;;;;;;8.97;3.00;;;;;;;10.83;88.30;101539.47;5018111;28;20214;-64
2022/11/10 10:10:21;;;;;;;8.73;2.93;;;;;;;10.90;88.29;101535.25;5023934;28;20207;-65
2022/11/10 10:13:22;;;;;;;12.07;3.00;;;;;;;11.07;88.99;101522.50;5015515;28;20199;-65
2022/11/10 10:16:24;;;;;;;6.97;3.07;;;;;;;11.09;89.00;101531.38;5013157;28;20239;-67
2022/11/10 10:19:19;;;;;;;12.70;3.37;;;;;;;11.10;84.53;101543.78;5018089;28;20294;-65
2022/11/10 10:21:52;;;;;;;6.90;2.90;;;;;;;11.02;87.14;101543.56;5016056;28;20564;-65
2022/11/10 10:24:21;;;;;;;9.30;2.90;;;;;;;11.17;88.12;101541.38;5019180;28;20286;-65
2022/11/10 10:26:55;;;;;;;7.00;2.83;;;;;;;11.49;84.46;101541.41;5013071;28;20237;-65
2022/11/10 10:29:24;;;;;;;8.90;3.10;;;;;;;11.58;84.74;101537.22;5015916;28;20282;-65
2022/11/10 10:31:52;;;;;;;5.60;2.60;;;;;;;11.73;81.29;101547.41;5016960;28;20311;-66
2022/11/10 10:34:26;;;;;;;5.50;2.60;;;;;;;11.67;81.10;101541.03;5019891;28;20218;-67
2022/11/10 10:36:52;;;;;;;12.87;3.20;;;;;;;11.55;85.48;101541.56;5024001;28;20239;-65
2022/11/10 10:39:30;;;;;;;7.80;3.27;;;;;;;11.67;80.70;101543.69;5019604;28;20265;-65
2022/11/10 10:41:57;;;;;;;7.67;2.70;;;;;;;11.67;80.48;101541.91;5014855;28;20234;-65
2022/11/10 10:44:23;;;;;;;5.50;2.60;;;;;;;11.70;79.38;101538.44;5014766;28;20257;-65
2022/11/10 10:46:58;;;;;;;6.10;2.70;;;;;;;11.78;77.36;101536.94;5015246;28;20202;-65
2022/11/10 10:49:30;;;;;;;9.03;3.00;;;;;;;11.78;78.58;101540.47;5012525;28;20271;-65
2022/11/10 10:52:09;;;;;;;8.73;2.53;;;;;;;11.90;77.00;101546.09;5014259;28;20525;-67
2022/11/10 10:54:37;;;;;;;6.23;2.90;;;;;;;11.93;78.68;101538.22;5014072;28;20220;-67
2022/11/10 10:57:23;;;;;;;7.83;2.80;;;;;;;12.06;75.66;101535.91;5018191;28;20206;-67
2022/11/10 10:59:51;;;;;;;10.20;3.20;;;;;;;12.02;77.24;101536.69;5022570;28;20300;-66
2022/11/10 11:02:30;;;;;;;8.37;2.90;;;;;;;12.10;77.29;101537.78;5017827;28;20286;-67
2022/11/10 11:05:17;;;;;;;10.83;2.80;;;;;;;12.24;78.10;101541.66;5023188;28;20285;-68
2022/11/10 11:07:59;;;;;;;10.53;2.90;;;;;;;12.57;72.90;101549.56;5019431;28;20302;-70
2022/11/10 11:10:29;;;;;;;5.50;2.47;;;;;;;12.44;73.30;101534.22;5016771;28;20702;-71
2022/11/10 11:13:20;;;;;;;8.57;2.87;;;;;;;12.36;73.02;101525.13;5017551;28;20204;-68
2022/11/10 11:15:59;;;;;;;8.13;2.33;;;;;;;12.57;72.97;101548.69;5017732;28;20658;-68
2022/11/10 11:18:28;;;;;;;7.70;2.50;;;;;;;12.67;72.98;101556.91;5013352;28;20260;-71
2022/11/10 11:21:16;;;;;;;6.60;2.10;;;;;;;12.84;71.82;101546.66;5017499;28;20201;-75
2022/11/10 11:24:09;;;;;;;6.77;2.43;;;;;;;12.89;71.55;101545.00;5012545;28;20231;-76
2022/11/10 11:26:58;;;;;;;6.60;2.33;;;;;;;13.00;71.71;101554.13;5020655;28;20553;-71
2022/11/10 11:29:39;;;;;;;8.10;2.43;;;;;;;13.13;71.24;101553.50;5017609;28;20258;-74
2022/11/10 11:32:37;;;;;;;6.70;2.67;;;;;;;13.19;69.80;101558.09;5021579;28;20671;-66
2022/11/10 11:35:30;;;;;;;9.33;2.40;;;;;;;13.19;69.18;101555.44;5019055;28;20736;-71
2022/11/10 11:38:13;;;;;;;10.57;3.13;;;;;;;13.16;67.68;101561.56;5025434;28;20254;-69
2022/11/10 11:40:50;;;;;;;8.50;2.10;;;;;;;13.21;67.83;101568.75;5018135;28;20210;-68
2022/11/10 11:43:31;;;;;;;4.07;2.20;;;;;;;13.22;68.77;101565.28;5025753;28;20283;-71
2022/11/10 11:46:21;;;;;;;5.40;2.33;;;;;;;13.31;67.08;101562.81;5022467;28;20241;-73
2022/11/10 11:49:13;;;;;;;5.93;1.90;;;;;;;13.36;66.59;101566.44;5022741;28;20249;-68
2022/11/10 11:52:02;;;;;;;7.27;2.37;;;;;;;13.37;67.71;101573.56;5020332;28;20231;-67
2022/11/10 11:54:56;;;;;;;5.13;2.20;;;;;;;13.46;67.42;101565.75;5024086;28;20253;-70